Goettingen, Germany

12:33 PM CEST on July 24, 2016 (GMT +0200)
Calden | | Change Station

Elev 909 ft 51.41 °N, 9.38 °E | Updated 13 minutes ago

Clear
Clear
75 °F
Feels Like 75 °F
N
2
Wind Variable Wind from Variable

Today
High -- | Low -- °F
--% Chance of Precip.
Yesterday
High -- | Low -- °F
Precip. -- in
Pressure 30.12 in
Visibility -9999.0 miles
Clouds
Dew Point 61 °F
Humidity 61%
Rainfall 0.00 in
Snow Depth Not available.
5:32 AM 9:19 PM
Waning Gibbous, 77% visible
METAR EDVK 241020Z VRB02KT CAVOK 24/16 Q1020
Pressure 30.12 in
Visibility -9999.0 miles
Clouds
Dew Point 61 °F
Humidity 61%
Rainfall 0.00 in
Snow Depth Not available.
5:32 AM 9:19 PM
Waning Gibbous, 77% visible
METAR EDVK 241020Z VRB02KT CAVOK 24/16 Q1020

10-Day Weather Forecast

×

Almanac

Astronomy

Jul. 24, 2016 Rise Set
Actual Time
Civil Twilight
Nautical Twilight
Astronomical Twilight
Moon
Length of Visible Light
Length of Day
Tomorrow will be .
, % of the Moon is Illuminated

Today's Extremes

Country Highs Country Lows

Community

WunderPhotos

Upload Photos

1,927,039 photos uploaded!

WunderBlog® & News

Nearby

Air Quality

  Air Quality AQ Index Pollutant
Not available.

Snow Depth

Station Depth Elevation

Earthquake Activity

City Distance Mag. Time & Date
Minimum magnitude displayed is 2.5.

Coastal Water Temperatures

Place Temperature

Stations

Nearby Weather Stations

Station Location Temp. Windchill Dew Point Humidity Wind Precip. Elev Updated Type